No particular awareness of the weather is required.    There are no Weather-warnings


Meteo18 Weather Cam more information Meteo18 Weather Cam


Thunder radar more information blitzortung!


Rain radar more information rain snow radar


Visit our other weather sites:

Template documentation
and downloads

And another site



Weather Underground History page Text

Daily Summary for August 15, 2017 Units:  Both    English   Metric
« Previous Day
Next Day »
Daily Weekly Monthly Yearly Custom
  High: Low: Average:
Temperature: TemperatureC °F /  -17.8 °C 17.9 °F /  -7.8 °C 20.5 °F /  -6.4 °C
Dew Point: DewpointC °F /  -17.8 °C 15.4 °F /  -9.2 °C 17.2 °F /  -8.2 °C
Humidity: Humidity % 62 % 81 %
Wind Speed: WindSpeedKMH mph /  0 km/h - 4.3 mph /  6.9 km/h
Wind Gust: WindSpeedGustKMH mph /  0 km/h - -
Wind:- - SW
Pressure: PressurehPa in /  0 hPa 1015.5 in /  34384.8 hPa -
Precipitation: 4.1 in /  104.14 mm    
Historical Graphs
 
 
Tabular Data for August 15, 2017
Time Temperature Dew Point Pressure Wind Wind Speed Wind Gust Humidity Rainfall Rate (Hourly)
TemperatureC °F /  -17.8 °C DewpointC °F /  -17.8 °C PressurehPa in /  0 hPa Calm     Humidity % HourlyPrecipMM in /  0 mm
00:02 20.1 °F /  -6.6 °C 15.5 °F /  -9.2 °C 1015.8 in /  34395 hPa Calm     75 % 0.0 in /  0 mm
00:07 20.2 °F /  -6.6 °C 15.6 °F /  -9.1 °C 1015.8 in /  34395 hPa Calm     75 % 0.0 in /  0 mm
00:12 20.2 °F /  -6.6 °C 15.6 °F /  -9.1 °C 1015.8 in /  34395 hPa Calm     75 % 0.0 in /  0 mm
00:17 20.2 °F /  -6.6 °C 15.8 °F /  -9 °C 1015.8 in /  34395 hPa Calm     76 % 0.0 in /  0 mm
00:22 19.9 °F /  -6.7 °C 15.7 °F /  -9.1 °C 1015.8 in /  34395 hPa Calm     77 % 0.0 in /  0 mm
00:32 19.9 °F /  -6.7 °C 15.7 °F /  -9.1 °C 1015.8 in /  34395 hPa Calm     77 % 0.0 in /  0 mm
00:42 19.8 °F /  -6.8 °C 15.7 °F /  -9.1 °C 1015.8 in /  34395 hPa Calm     77 % 0.0 in /  0 mm
00:52 19.7 °F /  -6.8 °C 15.6 °F /  -9.1 °C 1015.5 in /  34384.8 hPa Calm     77 % 0.0 in /  0 mm
00:57 19.7 °F /  -6.8 °C 15.6 °F /  -9.1 °C 1015.5 in /  34384.8 hPa Calm     77 % 0.0 in /  0 mm
01:02 19.6 °F /  -6.9 °C 15.5 °F /  -9.2 °C 1015.5 in /  34384.8 hPa Calm     77 % 0.0 in /  0 mm
01:12 19.4 °F /  -7 °C 15.5 °F /  -9.2 °C 1015.5 in /  34384.8 hPa Calm     78 % 0.0 in /  0 mm
01:17 19.4 °F /  -7 °C 15.5 °F /  -9.2 °C 1015.5 in /  34384.8 hPa Calm     78 % 0.0 in /  0 mm
01:22 19.3 °F /  -7.1 °C 15.6 °F /  -9.1 °C 1015.5 in /  34384.8 hPa Calm     79 % 0.0 in /  0 mm
01:32 19.3 °F /  -7.1 °C 15.4 °F /  -9.2 °C 1015.5 in /  34384.8 hPa Calm     78 % 0.0 in /  0 mm
01:37 19.3 °F /  -7.1 °C 15.4 °F /  -9.2 °C 1015.5 in /  34384.8 hPa Calm     78 % 0.0 in /  0 mm
01:42 19.2 °F /  -7.1 °C 15.5 °F /  -9.2 °C 1015.5 in /  34384.8 hPa Calm     79 % 0.0 in /  0 mm
01:47 19.1 °F /  -7.2 °C 15.6 °F /  -9.1 °C 1015.5 in /  34384.8 hPa Calm     80 % 0.0 in /  0 mm
01:52 19.0 °F /  -7.2 °C 15.5 °F /  -9.2 °C 1015.5 in /  34384.8 hPa Calm     80 % 0.0 in /  0 mm
01:57 19.0 °F /  -7.2 °C 15.5 °F /  -9.2 °C 1015.5 in /  34384.8 hPa Calm     80 % 0.0 in /  0 mm
02:02 19.0 °F /  -7.2 °C 15.5 °F /  -9.2 °C 1015.5 in /  34384.8 hPa Calm     80 % 0.0 in /  0 mm
02:07 19.1 °F /  -7.2 °C 15.6 °F /  -9.1 °C 1015.8 in /  34395 hPa Calm     80 % 0.0 in /  0 mm
02:12 19.0 °F /  -7.2 °C 15.5 °F /  -9.2 °C 1015.8 in /  34395 hPa Calm     80 % 0.0 in /  0 mm
02:17 18.9 °F /  -7.3 °C 15.6 °F /  -9.1 °C 1015.8 in /  34395 hPa Calm     81 % 0.0 in /  0 mm
02:22 18.9 °F /  -7.3 °C 15.4 °F /  -9.2 °C 1015.8 in /  34395 hPa Calm     80 % 0.0 in /  0 mm
02:27 19.2 °F /  -7.1 °C 15.7 °F /  -9.1 °C 1015.8 in /  34395 hPa Calm     80 % 0.0 in /  0 mm
02:32 19.2 °F /  -7.1 °C 15.7 °F /  -9.1 °C 1015.8 in /  34395 hPa Calm     80 % 0.0 in /  0 mm
02:37 19.2 °F /  -7.1 °C 15.5 °F /  -9.2 °C 1015.8 in /  34395 hPa Calm     79 % 0.0 in /  0 mm
02:42 19.2 °F /  -7.1 °C 15.5 °F /  -9.2 °C 1015.8 in /  34395 hPa Calm     79 % 0.0 in /  0 mm
02:47 19.3 °F /  -7.1 °C 15.6 °F /  -9.1 °C 1015.8 in /  34395 hPa Calm     79 % 0.0 in /  0 mm
02:52 19.3 °F /  -7.1 °C 15.6 °F /  -9.1 °C 1015.8 in /  34395 hPa Calm     79 % 0.0 in /  0 mm
02:57 19.3 °F /  -7.1 °C 15.8 °F /  -9 °C 1015.8 in /  34395 hPa Calm     80 % 0.0 in /  0 mm
03:02 19.3 °F /  -7.1 °C 15.6 °F /  -9.1 °C 1015.8 in /  34395 hPa Calm     79 % 0.0 in /  0 mm
03:12 19.4 °F /  -7 °C 15.7 °F /  -9.1 °C 1015.8 in /  34395 hPa Calm     79 % 0.0 in /  0 mm
03:17 19.3 °F /  -7.1 °C 15.6 °F /  -9.1 °C 1015.8 in /  34395 hPa Calm     79 % 0.0 in /  0 mm
03:22 19.4 °F /  -7 °C 15.7 °F /  -9.1 °C 1015.8 in /  34395 hPa Calm     79 % 0.0 in /  0 mm
03:32 20.1 °F /  -6.6 °C 15.7 °F /  -9.1 °C 1015.8 in /  34395 hPa Calm     76 % 0.0 in /  0 mm
03:37 20.2 °F /  -6.6 °C 15.8 °F /  -9 °C 1015.8 in /  34395 hPa SSW 3.2 mph /  5.1 km/h   76 % 0.0 in /  0 mm
03:42 20.0 °F /  -6.7 °C 15.8 °F /  -9 °C 1015.5 in /  34384.8 hPa SW 1.6 mph /  2.6 km/h 6.4 mph /  10.3 km/h 77 % 0.0 in /  0 mm
03:52 19.8 °F /  -6.8 °C 15.9 °F /  -8.9 °C 1015.8 in /  34395 hPa Calm   4.8 mph /  7.7 km/h 78 % 0.0 in /  0 mm
03:57 19.7 °F /  -6.8 °C 16.0 °F /  -8.9 °C 1015.8 in /  34395 hPa Calm   4.8 mph /  7.7 km/h 79 % 0.0 in /  0 mm
04:02 19.5 °F /  -6.9 °C 16.0 °F /  -8.9 °C 1015.8 in /  34395 hPa SSE 1.6 mph /  2.6 km/h 4.8 mph /  7.7 km/h 80 % 0.0 in /  0 mm
04:07 19.4 °F /  -7 °C 15.9 °F /  -8.9 °C 1015.8 in /  34395 hPa SSW 1.6 mph /  2.6 km/h 4.8 mph /  7.7 km/h 80 % 0.0 in /  0 mm
04:12 19.4 °F /  -7 °C 15.9 °F /  -8.9 °C 1015.8 in /  34395 hPa Calm   4.8 mph /  7.7 km/h 80 % 0.0 in /  0 mm
04:17 19.4 °F /  -7 °C 15.9 °F /  -8.9 °C 1015.8 in /  34395 hPa Calm   4.8 mph /  7.7 km/h 80 % 0.0 in /  0 mm
04:22 19.4 °F /  -7 °C 15.9 °F /  -8.9 °C 1015.8 in /  34395 hPa Calm   4.8 mph /  7.7 km/h 80 % 0.0 in /  0 mm
04:32 19.3 °F /  -7.1 °C 16.0 °F /  -8.9 °C 1015.5 in /  34384.8 hPa Calm   3.2 mph /  5.1 km/h 81 % 0.0 in /  0 mm
04:37 19.1 °F /  -7.2 °C 16.0 °F /  -8.9 °C 1015.8 in /  34395 hPa Calm   3.2 mph /  5.1 km/h 82 % 0.0 in /  0 mm
04:42 19.0 °F /  -7.2 °C 15.9 °F /  -8.9 °C 1015.5 in /  34384.8 hPa Calm     82 % 0.0 in /  0 mm
04:47 18.9 °F /  -7.3 °C 15.9 °F /  -8.9 °C 1015.8 in /  34395 hPa Calm     83 % 0.0 in /  0 mm
04:52 18.9 °F /  -7.3 °C 15.9 °F /  -8.9 °C 1015.8 in /  34395 hPa Calm     83 % 0.0 in /  0 mm
04:57 18.9 °F /  -7.3 °C 15.9 °F /  -8.9 °C 1015.8 in /  34395 hPa Calm     83 % 0.0 in /  0 mm
05:02 18.9 °F /  -7.3 °C 15.9 °F /  -8.9 °C 1015.8 in /  34395 hPa SSW 3.2 mph /  5.1 km/h   83 % 0.0 in /  0 mm
05:17 18.7 °F /  -7.4 °C 16.1 °F /  -8.8 °C 1015.8 in /  34395 hPa SW 1.6 mph /  2.6 km/h 6.4 mph /  10.3 km/h 85 % 0.0 in /  0 mm
05:22 18.7 °F /  -7.4 °C 16.3 °F /  -8.7 °C 1015.8 in /  34395 hPa SW 6.4 mph /  10.3 km/h 6.4 mph /  10.3 km/h 86 % 0.0 in /  0 mm
05:32 18.9 °F /  -7.3 °C 16.5 °F /  -8.6 °C 1015.8 in /  34395 hPa SW 3.2 mph /  5.1 km/h 16.1 mph /  25.9 km/h 86 % 1.8 in /  45.72 mm
05:37 18.8 °F /  -7.3 °C 16.6 °F /  -8.6 °C 1015.8 in /  34395 hPa SSW 3.2 mph /  5.1 km/h 16.1 mph /  25.9 km/h 87 % 2.5 in /  63.5 mm
05:42 18.6 °F /  -7.4 °C 16.6 °F /  -8.6 °C 1015.5 in /  34384.8 hPa SSW 1.6 mph /  2.6 km/h 16.1 mph /  25.9 km/h 88 % 2.5 in /  63.5 mm
05:47 18.4 °F /  -7.6 °C 16.6 °F /  -8.6 °C 1015.8 in /  34395 hPa South 1.6 mph /  2.6 km/h 8.0 mph /  12.9 km/h 89 % 2.5 in /  63.5 mm
05:52 18.4 °F /  -7.6 °C 16.6 °F /  -8.6 °C 1015.8 in /  34395 hPa Calm   4.8 mph /  7.7 km/h 89 % 2.5 in /  63.5 mm
06:02 18.3 °F /  -7.6 °C 16.6 °F /  -8.6 °C 1015.8 in /  34395 hPa Calm   4.8 mph /  7.7 km/h 90 % 2.5 in /  63.5 mm
06:12 18.4 °F /  -7.6 °C 16.6 °F /  -8.6 °C 1015.8 in /  34395 hPa SSW 1.6 mph /  2.6 km/h 3.2 mph /  5.1 km/h 89 % 2.5 in /  63.5 mm
06:17 18.3 °F /  -7.6 °C 16.5 °F /  -8.6 °C 1015.8 in /  34395 hPa SW 4.8 mph /  7.7 km/h 4.8 mph /  7.7 km/h 89 % 2.5 in /  63.5 mm
06:22 18.4 °F /  -7.6 °C 16.7 °F /  -8.5 °C 1016.1 in /  34405.1 hPa SW 3.2 mph /  5.1 km/h 4.8 mph /  7.7 km/h 90 % 2.5 in /  63.5 mm
06:27 18.3 °F /  -7.6 °C 16.6 °F /  -8.6 °C 1015.8 in /  34395 hPa Calm   4.8 mph /  7.7 km/h 90 % 2.5 in /  63.5 mm
06:32 18.3 °F /  -7.6 °C 16.6 °F /  -8.6 °C 1015.8 in /  34395 hPa Calm   6.4 mph /  10.3 km/h 90 % 0.0 in /  0 mm
06:42 18.3 °F /  -7.6 °C 16.6 °F /  -8.6 °C 1015.8 in /  34395 hPa Calm   4.8 mph /  7.7 km/h 90 % 0.0 in /  0 mm
06:47 18.1 °F /  -7.7 °C 16.6 °F /  -8.6 °C 1015.8 in /  34395 hPa Calm   4.8 mph /  7.7 km/h 91 % 0.0 in /  0 mm
06:52 18.1 °F /  -7.7 °C 16.6 °F /  -8.6 °C 1016.1 in /  34405.1 hPa Calm   4.8 mph /  7.7 km/h 91 % 0.0 in /  0 mm
06:57 18.1 °F /  -7.7 °C 16.6 °F /  -8.6 °C 1016.1 in /  34405.1 hPa Calm   4.8 mph /  7.7 km/h 91 % 0.0 in /  0 mm
07:02 18.1 °F /  -7.7 °C 16.6 °F /  -8.6 °C 1016.1 in /  34405.1 hPa Calm   1.6 mph /  2.6 km/h 91 % 0.0 in /  0 mm
07:07 18.1 °F /  -7.7 °C 16.4 °F /  -8.7 °C 1016.1 in /  34405.1 hPa Calm   1.6 mph /  2.6 km/h 90 % 0.0 in /  0 mm
07:12 18.1 °F /  -7.7 °C 16.4 °F /  -8.7 °C 1016.1 in /  34405.1 hPa Calm   1.6 mph /  2.6 km/h 90 % 0.0 in /  0 mm
07:17 18.1 °F /  -7.7 °C 16.4 °F /  -8.7 °C 1016.1 in /  34405.1 hPa Calm   1.6 mph /  2.6 km/h 90 % 0.0 in /  0 mm
07:27 18.2 °F /  -7.7 °C 16.5 °F /  -8.6 °C 1016.5 in /  34418.7 hPa Calm   1.6 mph /  2.6 km/h 90 % 0.0 in /  0 mm
07:32 18.3 °F /  -7.6 °C 16.6 °F /  -8.6 °C 1016.5 in /  34418.7 hPa Calm     90 % 0.0 in /  0 mm
07:37 18.2 °F /  -7.7 °C 16.5 °F /  -8.6 °C 1016.5 in /  34418.7 hPa Calm     90 % 0.0 in /  0 mm
07:42 18.2 °F /  -7.7 °C 16.7 °F /  -8.5 °C 1016.5 in /  34418.7 hPa Calm     91 % 0.0 in /  0 mm
07:47 18.0 °F /  -7.8 °C 16.5 °F /  -8.6 °C 1016.8 in /  34428.8 hPa Calm   1.6 mph /  2.6 km/h 91 % 0.0 in /  0 mm
07:57 17.9 °F /  -7.8 °C 16.4 °F /  -8.7 °C 1016.8 in /  34428.8 hPa WSW 1.6 mph /  2.6 km/h 1.6 mph /  2.6 km/h 91 % 0.0 in /  0 mm
08:02 18.0 °F /  -7.8 °C 16.5 °F /  -8.6 °C 1016.8 in /  34428.8 hPa SSW 1.6 mph /  2.6 km/h 1.6 mph /  2.6 km/h 91 % 0.0 in /  0 mm
08:07 18.2 °F /  -7.7 °C 16.7 °F /  -8.5 °C 1016.8 in /  34428.8 hPa Calm   3.2 mph /  5.1 km/h 91 % 0.0 in /  0 mm
08:12 18.3 °F /  -7.6 °C 16.6 °F /  -8.6 °C 1016.8 in /  34428.8 hPa Calm   3.2 mph /  5.1 km/h 90 % 0.0 in /  0 mm
08:17 18.4 °F /  -7.6 °C 16.7 °F /  -8.5 °C 1016.8 in /  34428.8 hPa SSW 1.6 mph /  2.6 km/h 4.8 mph /  7.7 km/h 90 % 0.0 in /  0 mm
08:22 18.6 °F /  -7.4 °C 16.9 °F /  -8.4 °C 1016.8 in /  34428.8 hPa SW 1.6 mph /  2.6 km/h 4.8 mph /  7.7 km/h 90 % 0.0 in /  0 mm
08:32 18.9 °F /  -7.3 °C 16.9 °F /  -8.4 °C 1016.8 in /  34428.8 hPa SW 6.4 mph /  10.3 km/h 6.4 mph /  10.3 km/h 88 % 0.0 in /  0 mm
08:37 19.1 °F /  -7.2 °C 16.9 °F /  -8.4 °C 1017.2 in /  34442.4 hPa SSW 4.8 mph /  7.7 km/h 8.0 mph /  12.9 km/h 87 % 0.0 in /  0 mm
08:42 19.1 °F /  -7.2 °C 16.9 °F /  -8.4 °C 1017.2 in /  34442.4 hPa SW 8.0 mph /  12.9 km/h 9.7 mph /  15.6 km/h 87 % 0.0 in /  0 mm
08:52 19.2 °F /  -7.1 °C 17.2 °F /  -8.2 °C 1017.2 in /  34442.4 hPa SSW 4.8 mph /  7.7 km/h 9.7 mph /  15.6 km/h 88 % 0.0 in /  0 mm
08:57 19.3 °F /  -7.1 °C 17.1 °F /  -8.3 °C 1017.2 in /  34442.4 hPa SSW 4.8 mph /  7.7 km/h 9.7 mph /  15.6 km/h 87 % 0.0 in /  0 mm
09:07 19.9 °F /  -6.7 °C 17.5 °F /  -8.1 °C 1017.5 in /  34452.6 hPa SW 6.4 mph /  10.3 km/h 9.7 mph /  15.6 km/h 86 % 0.0 in /  0 mm
09:17 20.8 °F /  -6.2 °C 18.2 °F /  -7.7 °C 1017.2 in /  34442.4 hPa SW 4.8 mph /  7.7 km/h 11.3 mph /  18.2 km/h 85 % 0.0 in /  0 mm
09:22 21.4 °F /  -5.9 °C 18.0 °F /  -7.8 °C 1017.2 in /  34442.4 hPa SSW 12.9 mph /  20.8 km/h 12.9 mph /  20.8 km/h 81 % 0.0 in /  0 mm
09:27 21.9 °F /  -5.6 °C 17.9 °F /  -7.8 °C 1017.2 in /  34442.4 hPa SSW 11.3 mph /  18.2 km/h 17.7 mph /  28.5 km/h 78 % 0.0 in /  0 mm
09:32 22.1 °F /  -5.5 °C 17.9 °F /  -7.8 °C 1017.2 in /  34442.4 hPa WSW 8.0 mph /  12.9 km/h 19.3 mph /  31.1 km/h 77 % 0.0 in /  0 mm
09:37 22.1 °F /  -5.5 °C 17.9 °F /  -7.8 °C 1017.2 in /  34442.4 hPa SW 11.3 mph /  18.2 km/h 19.3 mph /  31.1 km/h 77 % 0.0 in /  0 mm
09:42 22.1 °F /  -5.5 °C 17.9 °F /  -7.8 °C 1017.5 in /  34452.6 hPa SW 6.4 mph /  10.3 km/h 17.7 mph /  28.5 km/h 77 % 0.0 in /  0 mm
09:47 22.1 °F /  -5.5 °C 17.5 °F /  -8.1 °C 1017.2 in /  34442.4 hPa SW 8.0 mph /  12.9 km/h 16.1 mph /  25.9 km/h 75 % 0.0 in /  0 mm
09:52 22.2 °F /  -5.4 °C 17.6 °F /  -8 °C 1017.2 in /  34442.4 hPa WSW 14.5 mph /  23.3 km/h 16.1 mph /  25.9 km/h 75 % 0.0 in /  0 mm
10:02 22.6 °F /  -5.2 °C 17.3 °F /  -8.2 °C 1017.2 in /  34442.4 hPa SW 11.3 mph /  18.2 km/h 25.7 mph /  41.4 km/h 72 % 0.0 in /  0 mm
10:12 22.6 °F /  -5.2 °C 17.1 °F /  -8.3 °C 1017.5 in /  34452.6 hPa WSW 6.4 mph /  10.3 km/h 27.4 mph /  44.1 km/h 71 % 0.0 in /  0 mm
10:17 22.6 °F /  -5.2 °C 17.1 °F /  -8.3 °C 1017.5 in /  34452.6 hPa West 8.0 mph /  12.9 km/h 27.4 mph /  44.1 km/h 71 % 0.0 in /  0 mm
10:22 22.6 °F /  -5.2 °C 17.3 °F /  -8.2 °C 1017.8 in /  34462.7 hPa SSW 4.8 mph /  7.7 km/h 24.1 mph /  38.8 km/h 72 % 0.0 in /  0 mm
10:32 22.8 °F /  -5.1 °C 17.5 °F /  -8.1 °C 1017.8 in /  34462.7 hPa SW 8.0 mph /  12.9 km/h 17.7 mph /  28.5 km/h 72 % 0.0 in /  0 mm
10:37 22.9 °F /  -5.1 °C 17.6 °F /  -8 °C 1017.8 in /  34462.7 hPa SW 9.7 mph /  15.6 km/h 17.7 mph /  28.5 km/h 72 % 0.3 in /  7.62 mm
10:42 23.0 °F /  -5 °C 17.7 °F /  -7.9 °C 1017.8 in /  34462.7 hPa SSW 8.0 mph /  12.9 km/h 19.3 mph /  31.1 km/h 72 % 0.3 in /  7.62 mm
10:47 23.2 °F /  -4.9 °C 17.2 °F /  -8.2 °C 1017.8 in /  34462.7 hPa West 9.7 mph /  15.6 km/h 24.1 mph /  38.8 km/h 69 % 0.3 in /  7.62 mm
10:52 23.5 °F /  -4.7 °C 17.5 °F /  -8.1 °C 1017.8 in /  34462.7 hPa SW 9.7 mph /  15.6 km/h 24.1 mph /  38.8 km/h 69 % 0.3 in /  7.62 mm
10:57 23.8 °F /  -4.6 °C 17.8 °F /  -7.9 °C 1017.8 in /  34462.7 hPa WSW 12.9 mph /  20.8 km/h 24.1 mph /  38.8 km/h 69 % 0.3 in /  7.62 mm
11:02 23.9 °F /  -4.5 °C 17.9 °F /  -7.8 °C 1017.8 in /  34462.7 hPa West 4.8 mph /  7.7 km/h 20.9 mph /  33.6 km/h 69 % 0.3 in /  7.62 mm
11:12 24.2 °F /  -4.3 °C 17.4 °F /  -8.1 °C 1017.8 in /  34462.7 hPa SSW 8.0 mph /  12.9 km/h 19.3 mph /  31.1 km/h 66 % 0.3 in /  7.62 mm
11:17 24.4 °F /  -4.2 °C 18.1 °F /  -7.7 °C 1017.8 in /  34462.7 hPa West 1.6 mph /  2.6 km/h 17.7 mph /  28.5 km/h 68 % 0.3 in /  7.62 mm
11:22 24.6 °F /  -4.1 °C 17.6 °F /  -8 °C 1017.8 in /  34462.7 hPa SW 12.9 mph /  20.8 km/h 17.7 mph /  28.5 km/h 65 % 0.3 in /  7.62 mm
11:32 24.9 °F /  -3.9 °C 17.1 °F /  -8.3 °C 1017.8 in /  34462.7 hPa WSW 12.9 mph /  20.8 km/h 22.5 mph /  36.2 km/h 62 % 0.0 in /  0 mm
11:42 24.8 °F /  -4 °C 17.0 °F /  -8.3 °C 1017.8 in /  34462.7 hPa West 8.0 mph /  12.9 km/h 24.1 mph /  38.8 km/h 62 % 0.0 in /  0 mm
11:47 24.7 °F /  -4.1 °C 17.4 °F /  -8.1 °C 1018.2 in /  34476.3 hPa SW 9.7 mph /  15.6 km/h 20.9 mph /  33.6 km/h 64 % 0.0 in /  0 mm
11:52 24.7 °F /  -4.1 °C 17.2 °F /  -8.2 °C 1018.2 in /  34476.3 hPa WSW 11.3 mph /  18.2 km/h 17.7 mph /  28.5 km/h 63 % 0.0 in /  0 mm
11:57 24.5 °F /  -4.2 °C 17.0 °F /  -8.3 °C 1018.5 in /  34486.4 hPa WSW 16.1 mph /  25.9 km/h 17.7 mph /  28.5 km/h 63 % 0.0 in /  0 mm
12:02 24.3 °F /  -4.3 °C 16.8 °F /  -8.4 °C 1018.8 in /  34496.6 hPa West 9.7 mph /  15.6 km/h 16.1 mph /  25.9 km/h 63 % 0.0 in /  0 mm
12:07 24.1 °F /  -4.4 °C 16.6 °F /  -8.6 °C 1019.2 in /  34510.1 hPa SW 11.3 mph /  18.2 km/h 24.1 mph /  38.8 km/h 63 % 0.0 in /  0 mm
12:12 24.0 °F /  -4.4 °C 16.8 °F /  -8.4 °C 1019.5 in /  34520.3 hPa West 24.1 mph /  38.8 km/h 24.1 mph /  38.8 km/h 64 % 0.0 in /  0 mm
12:17 23.8 °F /  -4.6 °C 16.3 °F /  -8.7 °C 1019.9 in /  34533.8 hPa WSW 16.1 mph /  25.9 km/h 33.8 mph /  54.4 km/h 63 % 0.0 in /  0 mm
12:22 23.6 °F /  -4.7 °C 16.1 °F /  -8.8 °C 1019.9 in /  34533.8 hPa West 20.9 mph /  33.6 km/h 37.0 mph /  59.5 km/h 63 % 0.0 in /  0 mm
12:27 23.2 °F /  -4.9 °C 15.8 °F /  -9 °C 1019.9 in /  34533.8 hPa WNW 19.3 mph /  31.1 km/h 37.0 mph /  59.5 km/h 63 % 0.0 in /  0 mm
12:32 22.7 °F /  -5.2 °C 15.5 °F /  -9.2 °C 1019.9 in /  34533.8 hPa West 33.8 mph /  54.4 km/h 37.0 mph /  59.5 km/h 64 % 0.0 in /  0 mm
12:42 20.8 °F /  -6.2 °C 16.2 °F /  -8.8 °C 1019.9 in /  34533.8 hPa West 11.3 mph /  18.2 km/h 45.1 mph /  72.6 km/h 75 % 0.0 in /  0 mm
12:47 20.1 °F /  -6.6 °C 16.3 °F /  -8.7 °C 1019.5 in /  34520.3 hPa West 4.8 mph /  7.7 km/h 45.1 mph /  72.6 km/h 79 % 0.0 in /  0 mm
12:52 19.7 °F /  -6.8 °C 16.2 °F /  -8.8 °C 1019.5 in /  34520.3 hPa WNW 11.3 mph /  18.2 km/h 35.4 mph /  57 km/h 80 % 0.5 in /  12.7 mm
12:57 19.5 °F /  -6.9 °C 16.2 °F /  -8.8 °C 1019.5 in /  34520.3 hPa WSW 6.4 mph /  10.3 km/h 35.4 mph /  57 km/h 81 % 0.5 in /  12.7 mm
13:02 19.2 °F /  -7.1 °C 16.1 °F /  -8.8 °C 1019.5 in /  34520.3 hPa SSW 1.6 mph /  2.6 km/h 14.5 mph /  23.3 km/h 82 % 0.5 in /  12.7 mm
13:12 18.9 °F /  -7.3 °C 16.5 °F /  -8.6 °C 1019.5 in /  34520.3 hPa Calm   11.3 mph /  18.2 km/h 86 % 0.8 in /  20.32 mm
13:17 18.8 °F /  -7.3 °C 16.6 °F /  -8.6 °C 1019.2 in /  34510.1 hPa SSE 1.6 mph /  2.6 km/h 11.3 mph /  18.2 km/h 87 % 1.0 in /  25.4 mm
13:22 18.7 °F /  -7.4 °C 16.7 °F /  -8.5 °C 1019.2 in /  34510.1 hPa Calm   11.3 mph /  18.2 km/h 88 % 1.0 in /  25.4 mm
13:32 18.6 °F /  -7.4 °C 16.6 °F /  -8.6 °C 1018.8 in /  34496.6 hPa West 3.2 mph /  5.1 km/h 3.2 mph /  5.1 km/h 88 % 1.3 in /  33.02 mm
13:42 18.8 °F /  -7.3 °C 17.1 °F /  -8.3 °C 1018.5 in /  34486.4 hPa SE 3.2 mph /  5.1 km/h 8.0 mph /  12.9 km/h 90 % 1.3 in /  33.02 mm
13:52 19.2 °F /  -7.1 °C 17.7 °F /  -7.9 °C 1017.8 in /  34462.7 hPa Calm   6.4 mph /  10.3 km/h 91 % 0.5 in /  12.7 mm
13:57 19.4 °F /  -7 °C 17.9 °F /  -7.8 °C 1018.2 in /  34476.3 hPa Calm   6.4 mph /  10.3 km/h 91 % 0.5 in /  12.7 mm
14:02 19.4 °F /  -7 °C 17.5 °F /  -8.1 °C 1018.2 in /  34476.3 hPa SSW 1.6 mph /  2.6 km/h 4.8 mph /  7.7 km/h 89 % 0.5 in /  12.7 mm
14:07 19.4 °F /  -7 °C 17.4 °F /  -8.1 °C 1018.5 in /  34486.4 hPa West 1.6 mph /  2.6 km/h 4.8 mph /  7.7 km/h 88 % 0.5 in /  12.7 mm
14:12 19.6 °F /  -6.9 °C 17.7 °F /  -7.9 °C 1018.2 in /  34476.3 hPa Calm   4.8 mph /  7.7 km/h 89 % 0.3 in /  7.62 mm
14:17 19.7 °F /  -6.8 °C 17.7 °F /  -7.9 °C 1018.5 in /  34486.4 hPa Calm   4.8 mph /  7.7 km/h 88 % 0.3 in /  7.62 mm
14:22 19.8 °F /  -6.8 °C 17.8 °F /  -7.9 °C 1018.8 in /  34496.6 hPa Calm   4.8 mph /  7.7 km/h 88 % 0.3 in /  7.62 mm
14:27 19.9 °F /  -6.7 °C 17.9 °F /  -7.8 °C 1018.8 in /  34496.6 hPa SW 1.6 mph /  2.6 km/h 4.8 mph /  7.7 km/h 88 % 0.0 in /  0 mm
14:32 20.1 °F /  -6.6 °C 18.0 °F /  -7.8 °C 1018.8 in /  34496.6 hPa SSW 1.6 mph /  2.6 km/h 6.4 mph /  10.3 km/h 88 % 0.0 in /  0 mm
14:42 20.3 °F /  -6.5 °C 17.9 °F /  -7.8 °C 1019.5 in /  34520.3 hPa SW 4.8 mph /  7.7 km/h 9.7 mph /  15.6 km/h 86 % 0.0 in /  0 mm
14:47 20.3 °F /  -6.5 °C 17.7 °F /  -7.9 °C 1019.5 in /  34520.3 hPa WSW 8.0 mph /  12.9 km/h 11.3 mph /  18.2 km/h 85 % 0.0 in /  0 mm
14:52 20.3 °F /  -6.5 °C 17.9 °F /  -7.8 °C 1019.9 in /  34533.8 hPa West 8.0 mph /  12.9 km/h 12.9 mph /  20.8 km/h 86 % 0.0 in /  0 mm
14:57 20.3 °F /  -6.5 °C 18.1 °F /  -7.7 °C 1019.9 in /  34533.8 hPa SW 12.9 mph /  20.8 km/h 19.3 mph /  31.1 km/h 87 % 0.0 in /  0 mm
15:02 20.3 °F /  -6.5 °C 17.9 °F /  -7.8 °C 1019.9 in /  34533.8 hPa WSW 9.7 mph /  15.6 km/h 19.3 mph /  31.1 km/h 86 % 0.0 in /  0 mm
15:07 20.3 °F /  -6.5 °C 18.1 °F /  -7.7 °C 1019.9 in /  34533.8 hPa West 3.2 mph /  5.1 km/h 19.3 mph /  31.1 km/h 87 % 0.0 in /  0 mm
15:12 20.4 °F /  -6.4 °C 18.2 °F /  -7.7 °C 1020.2 in /  34544 hPa WSW 9.7 mph /  15.6 km/h 19.3 mph /  31.1 km/h 87 % 0.0 in /  0 mm
15:17 20.4 °F /  -6.4 °C 18.2 °F /  -7.7 °C 1020.2 in /  34544 hPa SW 4.8 mph /  7.7 km/h 19.3 mph /  31.1 km/h 87 % 0.0 in /  0 mm
15:22 20.6 °F /  -6.3 °C 18.4 °F /  -7.6 °C 1020.2 in /  34544 hPa SW 16.1 mph /  25.9 km/h 19.3 mph /  31.1 km/h 87 % 0.0 in /  0 mm
15:27 20.7 °F /  -6.3 °C 18.5 °F /  -7.5 °C 1020.2 in /  34544 hPa WSW 4.8 mph /  7.7 km/h 17.7 mph /  28.5 km/h 87 % 0.0 in /  0 mm
15:32 20.7 °F /  -6.3 °C 18.5 °F /  -7.5 °C 1020.2 in /  34544 hPa WSW 4.8 mph /  7.7 km/h 16.1 mph /  25.9 km/h 87 % 0.0 in /  0 mm
15:37 20.8 °F /  -6.2 °C 18.4 °F /  -7.6 °C 1020.2 in /  34544 hPa WSW 11.3 mph /  18.2 km/h 16.1 mph /  25.9 km/h 86 % 0.0 in /  0 mm
15:42 20.9 °F /  -6.2 °C 18.5 °F /  -7.5 °C 1019.9 in /  34533.8 hPa West 8.0 mph /  12.9 km/h 14.5 mph /  23.3 km/h 86 % 0.0 in /  0 mm
15:47 21.2 °F /  -6 °C 18.6 °F /  -7.4 °C 1019.9 in /  34533.8 hPa SSW 8.0 mph /  12.9 km/h 14.5 mph /  23.3 km/h 85 % 0.0 in /  0 mm
15:52 21.4 °F /  -5.9 °C 18.8 °F /  -7.3 °C 1019.9 in /  34533.8 hPa WSW 3.2 mph /  5.1 km/h 16.1 mph /  25.9 km/h 85 % 0.0 in /  0 mm
15:57 21.8 °F /  -5.7 °C 19.2 °F /  -7.1 °C 1020.2 in /  34544 hPa SW 14.5 mph /  23.3 km/h 19.3 mph /  31.1 km/h 85 % 0.0 in /  0 mm
16:02 22.0 °F /  -5.6 °C 19.2 °F /  -7.1 °C 1019.9 in /  34533.8 hPa West 8.0 mph /  12.9 km/h 19.3 mph /  31.1 km/h 84 % 0.0 in /  0 mm
16:12 22.3 °F /  -5.4 °C 18.5 °F /  -7.5 °C 1019.9 in /  34533.8 hPa SW 11.3 mph /  18.2 km/h 20.9 mph /  33.6 km/h 79 % 0.0 in /  0 mm
16:17 22.4 °F /  -5.3 °C 18.8 °F /  -7.3 °C 1019.9 in /  34533.8 hPa WSW 6.4 mph /  10.3 km/h 20.9 mph /  33.6 km/h 80 % 0.0 in /  0 mm
16:22 22.4 °F /  -5.3 °C 18.8 °F /  -7.3 °C 1019.9 in /  34533.8 hPa WSW 11.3 mph /  18.2 km/h 20.9 mph /  33.6 km/h 80 % 0.0 in /  0 mm
16:27 22.4 °F /  -5.3 °C 18.6 °F /  -7.4 °C 1019.9 in /  34533.8 hPa SSW 8.0 mph /  12.9 km/h 19.3 mph /  31.1 km/h 79 % 0.0 in /  0 mm
16:32 22.4 °F /  -5.3 °C 18.4 °F /  -7.6 °C 1019.9 in /  34533.8 hPa SSW 6.4 mph /  10.3 km/h 19.3 mph /  31.1 km/h 78 % 0.0 in /  0 mm
16:42 22.4 °F /  -5.3 °C 18.0 °F /  -7.8 °C 1019.9 in /  34533.8 hPa SW 11.3 mph /  18.2 km/h 19.3 mph /  31.1 km/h 76 % 0.0 in /  0 mm
16:47 22.5 °F /  -5.3 °C 18.1 °F /  -7.7 °C 1019.5 in /  34520.3 hPa SW 8.0 mph /  12.9 km/h 19.3 mph /  31.1 km/h 76 % 0.0 in /  0 mm
16:52 22.5 °F /  -5.3 °C 18.3 °F /  -7.6 °C 1019.5 in /  34520.3 hPa South 8.0 mph /  12.9 km/h 19.3 mph /  31.1 km/h 77 % 0.0 in /  0 mm
16:57 22.6 °F /  -5.2 °C 18.4 °F /  -7.6 °C 1019.5 in /  34520.3 hPa SSW 17.7 mph /  28.5 km/h 17.7 mph /  28.5 km/h 77 % 0.0 in /  0 mm
17:02 22.6 °F /  -5.2 °C 18.2 °F /  -7.7 °C 1019.5 in /  34520.3 hPa SW 8.0 mph /  12.9 km/h 17.7 mph /  28.5 km/h 76 % 0.0 in /  0 mm
17:12 22.5 °F /  -5.3 °C 18.3 °F /  -7.6 °C 1019.9 in /  34533.8 hPa WSW 12.9 mph /  20.8 km/h 19.3 mph /  31.1 km/h 77 % 0.0 in /  0 mm
17:17 22.4 °F /  -5.3 °C 18.0 °F /  -7.8 °C 1019.9 in /  34533.8 hPa SW 12.9 mph /  20.8 km/h 19.3 mph /  31.1 km/h 76 % 0.0 in /  0 mm
17:22 22.4 °F /  -5.3 °C 18.2 °F /  -7.7 °C 1019.9 in /  34533.8 hPa SSW 6.4 mph /  10.3 km/h 19.3 mph /  31.1 km/h 77 % 0.0 in /  0 mm
17:27 22.4 °F /  -5.3 °C 18.4 °F /  -7.6 °C 1019.9 in /  34533.8 hPa SSW 4.8 mph /  7.7 km/h 19.3 mph /  31.1 km/h 78 % 0.0 in /  0 mm
17:32 22.4 °F /  -5.3 °C 18.4 °F /  -7.6 °C 1019.9 in /  34533.8 hPa SW 14.5 mph /  23.3 km/h 19.3 mph /  31.1 km/h 78 % 0.0 in /  0 mm
17:37 22.4 °F /  -5.3 °C 18.4 °F /  -7.6 °C 1019.9 in /  34533.8 hPa WSW 12.9 mph /  20.8 km/h 14.5 mph /  23.3 km/h 78 % 0.0 in /  0 mm
17:42 22.3 °F /  -5.4 °C 18.3 °F /  -7.6 °C 1019.9 in /  34533.8 hPa SW 6.4 mph /  10.3 km/h 14.5 mph /  23.3 km/h 78 % 0.0 in /  0 mm
17:47 22.3 °F /  -5.4 °C 18.3 °F /  -7.6 °C 1019.9 in /  34533.8 hPa SSW 4.8 mph /  7.7 km/h 14.5 mph /  23.3 km/h 78 % 0.0 in /  0 mm
17:52 22.2 °F /  -5.4 °C 18.4 °F /  -7.6 °C 1019.9 in /  34533.8 hPa WSW 4.8 mph /  7.7 km/h 14.5 mph /  23.3 km/h 79 % 0.0 in /  0 mm
17:57 22.2 °F /  -5.4 °C 18.4 °F /  -7.6 °C 1019.9 in /  34533.8 hPa SW 6.4 mph /  10.3 km/h 14.5 mph /  23.3 km/h 79 % 0.0 in /  0 mm
18:02 22.2 °F /  -5.4 °C 18.6 °F /  -7.4 °C 1019.9 in /  34533.8 hPa SSW 8.0 mph /  12.9 km/h 14.5 mph /  23.3 km/h 80 % 0.0 in /  0 mm
18:12 22.1 °F /  -5.5 °C 18.5 °F /  -7.5 °C 1019.9 in /  34533.8 hPa SW 8.0 mph /  12.9 km/h 12.9 mph /  20.8 km/h 80 % 0.0 in /  0 mm
18:17 22.2 °F /  -5.4 °C 18.8 °F /  -7.3 °C 1019.9 in /  34533.8 hPa WSW 4.8 mph /  7.7 km/h 12.9 mph /  20.8 km/h 81 % 0.0 in /  0 mm
18:22 22.2 °F /  -5.4 °C 18.6 °F /  -7.4 °C 1019.9 in /  34533.8 hPa WSW 3.2 mph /  5.1 km/h 12.9 mph /  20.8 km/h 80 % 0.0 in /  0 mm
18:32 22.2 °F /  -5.4 °C 18.6 °F /  -7.4 °C 1019.5 in /  34520.3 hPa SSW 3.2 mph /  5.1 km/h 11.3 mph /  18.2 km/h 80 % 0.0 in /  0 mm
18:42 22.1 °F /  -5.5 °C 18.9 °F /  -7.3 °C 1019.5 in /  34520.3 hPa SW 11.3 mph /  18.2 km/h 11.3 mph /  18.2 km/h 82 % 0.0 in /  0 mm
18:52 21.9 °F /  -5.6 °C 18.9 °F /  -7.3 °C 1019.5 in /  34520.3 hPa SW 4.8 mph /  7.7 km/h 14.5 mph /  23.3 km/h 83 % 0.0 in /  0 mm
19:02 21.9 °F /  -5.6 °C 18.9 °F /  -7.3 °C 1019.2 in /  34510.1 hPa SSE 3.2 mph /  5.1 km/h 12.9 mph /  20.8 km/h 83 % 0.0 in /  0 mm
19:12 21.8 °F /  -5.7 °C 18.8 °F /  -7.3 °C 1018.8 in /  34496.6 hPa SW 3.2 mph /  5.1 km/h 8.0 mph /  12.9 km/h 83 % 0.0 in /  0 mm
19:17 21.8 °F /  -5.7 °C 18.8 °F /  -7.3 °C 1018.8 in /  34496.6 hPa SW 1.6 mph /  2.6 km/h 8.0 mph /  12.9 km/h 83 % 0.0 in /  0 mm
19:22 21.8 °F /  -5.7 °C 18.6 °F /  -7.4 °C 1018.8 in /  34496.6 hPa SW 6.4 mph /  10.3 km/h 8.0 mph /  12.9 km/h 82 % 0.0 in /  0 mm
19:32 22.1 °F /  -5.5 °C 18.7 °F /  -7.4 °C 1018.8 in /  34496.6 hPa SW 4.8 mph /  7.7 km/h 8.0 mph /  12.9 km/h 81 % 0.0 in /  0 mm
19:37 22.3 °F /  -5.4 °C 18.9 °F /  -7.3 °C 1019.2 in /  34510.1 hPa SW 8.0 mph /  12.9 km/h 11.3 mph /  18.2 km/h 81 % 0.0 in /  0 mm
19:42 22.3 °F /  -5.4 °C 18.9 °F /  -7.3 °C 1019.2 in /  34510.1 hPa SW 4.8 mph /  7.7 km/h 11.3 mph /  18.2 km/h 81 % 0.0 in /  0 mm
19:47 22.3 °F /  -5.4 °C 18.9 °F /  -7.3 °C 1019.5 in /  34520.3 hPa SW 11.3 mph /  18.2 km/h 11.3 mph /  18.2 km/h 81 % 0.0 in /  0 mm
19:52 22.3 °F /  -5.4 °C 18.7 °F /  -7.4 °C 1019.5 in /  34520.3 hPa SW 4.8 mph /  7.7 km/h 16.1 mph /  25.9 km/h 80 % 0.0 in /  0 mm
19:57 22.2 °F /  -5.4 °C 18.6 °F /  -7.4 °C 1019.5 in /  34520.3 hPa South 4.8 mph /  7.7 km/h 16.1 mph /  25.9 km/h 80 % 0.0 in /  0 mm
20:02 22.1 °F /  -5.5 °C 18.7 °F /  -7.4 °C 1019.5 in /  34520.3 hPa SW 1.6 mph /  2.6 km/h 16.1 mph /  25.9 km/h 81 % 0.0 in /  0 mm
20:12 21.9 °F /  -5.6 °C 18.7 °F /  -7.4 °C 1019.5 in /  34520.3 hPa SW 4.8 mph /  7.7 km/h 11.3 mph /  18.2 km/h 82 % 0.0 in /  0 mm
20:17 21.9 °F /  -5.6 °C 18.7 °F /  -7.4 °C 1019.5 in /  34520.3 hPa SW 8.0 mph /  12.9 km/h 11.3 mph /  18.2 km/h 82 % 0.0 in /  0 mm
20:27 21.8 °F /  -5.7 °C 18.6 °F /  -7.4 °C 1019.9 in /  34533.8 hPa WSW 3.2 mph /  5.1 km/h 11.3 mph /  18.2 km/h 82 % 0.0 in /  0 mm
20:32 21.8 °F /  -5.7 °C 18.6 °F /  -7.4 °C 1019.9 in /  34533.8 hPa Calm   11.3 mph /  18.2 km/h 82 % 0.0 in /  0 mm
20:37 21.8 °F /  -5.7 °C 18.6 °F /  -7.4 °C 1019.9 in /  34533.8 hPa SE 1.6 mph /  2.6 km/h 11.3 mph /  18.2 km/h 82 % 0.0 in /  0 mm
20:42 21.7 °F /  -5.7 °C 18.5 °F /  -7.5 °C 1019.9 in /  34533.8 hPa WSW 3.2 mph /  5.1 km/h 4.8 mph /  7.7 km/h 82 % 0.0 in /  0 mm
20:47 21.7 °F /  -5.7 °C 18.5 °F /  -7.5 °C 1019.9 in /  34533.8 hPa Calm   4.8 mph /  7.7 km/h 82 % 0.0 in /  0 mm
20:57 21.5 °F /  -5.8 °C 18.5 °F /  -7.5 °C 1019.9 in /  34533.8 hPa Calm   4.8 mph /  7.7 km/h 83 % 0.0 in /  0 mm
21:02 21.4 °F /  -5.9 °C 18.6 °F /  -7.4 °C 1019.9 in /  34533.8 hPa Calm   3.2 mph /  5.1 km/h 84 % 0.0 in /  0 mm
21:07 21.2 °F /  -6 °C 18.6 °F /  -7.4 °C 1019.9 in /  34533.8 hPa SE 1.6 mph /  2.6 km/h 3.2 mph /  5.1 km/h 85 % 0.0 in /  0 mm
21:12 21.1 °F /  -6.1 °C 18.5 °F /  -7.5 °C 1019.9 in /  34533.8 hPa Calm   3.2 mph /  5.1 km/h 85 % 0.0 in /  0 mm
21:17 20.9 °F /  -6.2 °C 18.5 °F /  -7.5 °C 1019.9 in /  34533.8 hPa Calm   3.2 mph /  5.1 km/h 86 % 0.0 in /  0 mm
21:22 20.8 °F /  -6.2 °C 18.4 °F /  -7.6 °C 1019.9 in /  34533.8 hPa Calm   3.2 mph /  5.1 km/h 86 % 0.0 in /  0 mm
21:27 20.7 °F /  -6.3 °C 18.3 °F /  -7.6 °C 1019.9 in /  34533.8 hPa Calm   3.2 mph /  5.1 km/h 86 % 0.0 in /  0 mm
21:32 20.5 °F /  -6.4 °C 18.1 °F /  -7.7 °C 1019.9 in /  34533.8 hPa Calm   3.2 mph /  5.1 km/h 86 % 0.0 in /  0 mm
21:37 20.4 °F /  -6.4 °C 18.2 °F /  -7.7 °C 1019.9 in /  34533.8 hPa Calm   1.6 mph /  2.6 km/h 87 % 0.0 in /  0 mm
21:47 20.2 °F /  -6.6 °C 18.1 °F /  -7.7 °C 1020.2 in /  34544 hPa Calm   1.6 mph /  2.6 km/h 88 % 0.0 in /  0 mm
21:52 20.1 °F /  -6.6 °C 18.2 °F /  -7.7 °C 1020.5 in /  34554.1 hPa Calm   1.6 mph /  2.6 km/h 89 % 0.0 in /  0 mm
21:57 20.0 °F /  -6.7 °C 18.1 °F /  -7.7 °C 1020.5 in /  34554.1 hPa Calm   1.6 mph /  2.6 km/h 89 % 0.0 in /  0 mm
22:02 19.9 °F /  -6.7 °C 18.2 °F /  -7.7 °C 1020.5 in /  34554.1 hPa Calm     90 % 0.0 in /  0 mm
22:07 19.9 °F /  -6.7 °C 18.2 °F /  -7.7 °C 1020.9 in /  34567.7 hPa Calm     90 % 0.0 in /  0 mm
22:12 19.9 °F /  -6.7 °C 18.2 °F /  -7.7 °C 1020.9 in /  34567.7 hPa Calm     90 % 0.0 in /  0 mm
22:17 20.0 °F /  -6.7 °C 18.3 °F /  -7.6 °C 1021.2 in /  34577.8 hPa Calm     90 % 0.0 in /  0 mm
22:22 20.1 °F /  -6.6 °C 18.4 °F /  -7.6 °C 1020.9 in /  34567.7 hPa Calm     90 % 0.0 in /  0 mm
22:32 19.8 °F /  -6.8 °C 18.1 °F /  -7.7 °C 1020.9 in /  34567.7 hPa Calm     90 % 0.0 in /  0 mm
22:37 19.7 °F /  -6.8 °C 18.0 °F /  -7.8 °C 1020.9 in /  34567.7 hPa Calm     90 % 0.0 in /  0 mm
22:42 19.7 °F /  -6.8 °C 18.2 °F /  -7.7 °C 1020.9 in /  34567.7 hPa Calm     91 % 0.0 in /  0 mm
22:52 19.8 °F /  -6.8 °C 18.5 °F /  -7.5 °C 1020.9 in /  34567.7 hPa SW 3.2 mph /  5.1 km/h 4.8 mph /  7.7 km/h 92 % 0.0 in /  0 mm
22:57 20.0 °F /  -6.7 °C 18.5 °F /  -7.5 °C 1021.2 in /  34577.8 hPa SSW 3.2 mph /  5.1 km/h 4.8 mph /  7.7 km/h 91 % 0.0 in /  0 mm
23:02 20.1 °F /  -6.6 °C 18.6 °F /  -7.4 °C 1020.9 in /  34567.7 hPa SSW 4.8 mph /  7.7 km/h 4.8 mph /  7.7 km/h 91 % 0.0 in /  0 mm
23:12 20.1 °F /  -6.6 °C 18.4 °F /  -7.6 °C 1020.9 in /  34567.7 hPa SW 4.8 mph /  7.7 km/h 6.4 mph /  10.3 km/h 90 % 0.0 in /  0 mm
23:17 20.2 °F /  -6.6 °C 18.5 °F /  -7.5 °C 1020.9 in /  34567.7 hPa SW 3.2 mph /  5.1 km/h 6.4 mph /  10.3 km/h 90 % 0.0 in /  0 mm
23:22 20.2 °F /  -6.6 °C 18.5 °F /  -7.5 °C 1020.9 in /  34567.7 hPa SW 4.8 mph /  7.7 km/h 8.0 mph /  12.9 km/h 90 % 0.0 in /  0 mm
23:32 20.2 °F /  -6.6 °C 18.5 °F /  -7.5 °C 1020.9 in /  34567.7 hPa WSW 6.4 mph /  10.3 km/h 9.7 mph /  15.6 km/h 90 % 0.0 in /  0 mm
23:37 20.3 °F /  -6.5 °C 18.6 °F /  -7.4 °C 1020.9 in /  34567.7 hPa SW 9.7 mph /  15.6 km/h 9.7 mph /  15.6 km/h 90 % 0.0 in /  0 mm
23:42 20.3 °F /  -6.5 °C 18.6 °F /  -7.4 °C 1020.9 in /  34567.7 hPa SW 6.4 mph /  10.3 km/h 11.3 mph /  18.2 km/h 90 % 0.0 in /  0 mm
23:47 20.3 °F /  -6.5 °C 18.6 °F /  -7.4 °C 1020.9 in /  34567.7 hPa WSW 6.4 mph /  10.3 km/h 11.3 mph /  18.2 km/h 90 % 0.0 in /  0 mm
23:57 20.3 °F /  -6.5 °C 18.6 °F /  -7.4 °C 1020.9 in /  34567.7 hPa SW 8.0 mph /  12.9 km/h 12.9 mph /  20.8 km/h 90 % 0.0 in /  0 mm
Meteo18
Compliments of Weather Underground - 4 mb

Script developed by  Jim McMurry - jmcmurry@mwt.net Adapted for the template by  Wim van der Kuil - Leuven-Template.eu

You find our weather info also at:

European Weather Network

Weather Underground

Equipment we use:

Weather-station
Davis Vue

Weather-program
Meteobridge

Weather-server
Raspberry PI 2 B+

Provider
1 and 1

Davis Vue

Meteobridge

Raspberry PI 2 B+

1 and 1